BTI14KN EPPO-GCLP
Flight info
| Callsign | BTI14KN |
|---|---|
| Flight time | N/A |
| Altitude | 36000 |
| Route | ERNOX P861 LATAG T174 KORUP DCT PEROX Z715 ANELA N869 TEDGO/N0455F350 N869 OLBEN DCT ONNOF DCT BELUS/N0454F360 DCT LSE/N0453F370 UY305 ESIDA DCT GAI DCT PERDU DCT KONKE Z245 CJN N10 SVL N857 KORNO UN857 TERTO |
| Aircraft | B38M/M-SDE1FGHILORVWXY/HB1 |
Departure
| Time | 2026-05-04 08:25 |
|---|---|
| Airport | Poznań-Ławica Airport (EPPO) |
Arrival
| Time | N/A |
|---|---|
| Airport | Gran Canaria Airport (GCLP) |
| Time | Latitude | Longitude | Altitude | Speed | Heading |
|---|---|---|---|---|---|
| 2026-05-04 08:02 | 52.41592 | 16.82692 | 305 ft | 0 kts | 43° |
| 2026-05-04 08:11 | 52.41595 | 16.82695 | 305 ft | 3 kts | 36° |
| 2026-05-04 08:12 | 52.41620 | 16.82705 | 307 ft | 4 kts | 6° |
| 2026-05-04 08:12 | 52.41647 | 16.82705 | 306 ft | 4 kts | 356° |
| 2026-05-04 08:12 | 52.41674 | 16.82698 | 305 ft | 4 kts | 348° |
| 2026-05-04 08:12 | 52.41672 | 16.82703 | 305 ft | 2 kts | 272° |
| 2026-05-04 08:13 | 52.41673 | 16.82672 | 305 ft | 12 kts | 91° |
| 2026-05-04 08:16 | 52.41673 | 16.82673 | 305 ft | 0 kts | 91° |
| 2026-05-04 08:19 | 52.41672 | 16.82692 | 308 ft | 4 kts | 91° |
| 2026-05-04 08:20 | 52.41672 | 16.82766 | 307 ft | 9 kts | 90° |
| 2026-05-04 08:20 | 52.41706 | 16.82837 | 304 ft | 9 kts | 20° |
| 2026-05-04 08:20 | 52.41784 | 16.82875 | 304 ft | 14 kts | 15° |
| 2026-05-04 08:20 | 52.41885 | 16.82872 | 307 ft | 16 kts | 325° |
| 2026-05-04 08:21 | 52.41926 | 16.82717 | 307 ft | 16 kts | 281° |
| 2026-05-04 08:21 | 52.41951 | 16.82531 | 307 ft | 17 kts | 282° |
| 2026-05-04 08:21 | 52.41985 | 16.82332 | 308 ft | 19 kts | 289° |
| 2026-05-04 08:21 | 52.42029 | 16.82114 | 312 ft | 21 kts | 287° |
| 2026-05-04 08:22 | 52.42074 | 16.81876 | 309 ft | 22 kts | 291° |
| 2026-05-04 08:22 | 52.42125 | 16.81625 | 312 ft | 24 kts | 287° |
| 2026-05-04 08:24 | 52.42448 | 16.80598 | 317 ft | 6 kts | 26° |
| 2026-05-04 08:24 | 52.42479 | 16.80653 | 317 ft | 6 kts | 75° |
| 2026-05-04 08:24 | 52.42474 | 16.80706 | 317 ft | 5 kts | 105° |
| 2026-05-04 08:24 | 52.42464 | 16.80765 | 318 ft | 5 kts | 107° |
| 2026-05-04 08:25 | 52.42440 | 16.80899 | 318 ft | 37 kts | 106° |
| 2026-05-04 08:25 | 52.42275 | 16.81784 | 311 ft | 123 kts | 106° |
| 2026-05-04 08:25 | 52.41949 | 16.83458 | 379 ft | 176 kts | 110° |
| 2026-05-04 08:25 | 52.41540 | 16.85303 | 1161 ft | 180 kts | 109° |
| 2026-05-04 08:26 | 52.41129 | 16.87432 | 1610 ft | 213 kts | 108° |
| 2026-05-04 08:27 | 52.37698 | 17.05052 | 4286 ft | 264 kts | 106° |
| 2026-05-04 08:28 | 52.37210 | 17.07855 | 5571 ft | 245 kts | 109° |
| 2026-05-04 08:28 | 52.36710 | 17.10401 | 6789 ft | 223 kts | 112° |
| 2026-05-04 08:28 | 52.36072 | 17.12526 | 7827 ft | 197 kts | 138° |
| 2026-05-04 08:28 | 52.35034 | 17.13773 | 8459 ft | 185 kts | 168° |
| 2026-05-04 08:29 | 52.33784 | 17.14077 | 8916 ft | 184 kts | 193° |
| 2026-05-04 08:29 | 52.32523 | 17.13527 | 9323 ft | 195 kts | 201° |
| 2026-05-04 08:29 | 52.31185 | 17.12817 | 9718 ft | 211 kts | 201° |
| 2026-05-04 08:31 | 52.28511 | 16.97095 | 10039 ft | 274 kts | 283° |
| 2026-05-04 08:33 | 52.29512 | 16.77744 | 10016 ft | 262 kts | 227° |
| 2026-05-04 08:33 | 52.28080 | 16.75911 | 10015 ft | 265 kts | 210° |
| 2026-05-04 08:35 | 52.14768 | 16.67476 | 12730 ft | 315 kts | 227° |
| 2026-05-04 08:35 | 52.13483 | 16.64580 | 13457 ft | 318 kts | 242° |
| 2026-05-04 08:35 | 52.12736 | 16.61176 | 14141 ft | 322 kts | 252° |
| 2026-05-04 08:35 | 52.12142 | 16.57638 | 14738 ft | 325 kts | 253° |
| 2026-05-04 08:37 | 52.08537 | 16.36236 | 15032 ft | 329 kts | 253° |
| 2026-05-04 08:37 | 52.07927 | 16.32654 | 15033 ft | 329 kts | 253° |
| 2026-05-04 08:37 | 52.07315 | 16.29069 | 15030 ft | 329 kts | 253° |
| 2026-05-04 08:38 | 52.06703 | 16.25485 | 15034 ft | 329 kts | 253° |
| 2026-05-04 08:38 | 52.06089 | 16.21900 | 15033 ft | 329 kts | 253° |
| 2026-05-04 08:38 | 52.05473 | 16.18315 | 15032 ft | 329 kts | 252° |
| 2026-05-04 08:40 | 51.97434 | 15.97309 | 15036 ft | 331 kts | 211° |
| 2026-05-04 08:40 | 51.95420 | 15.95510 | 15041 ft | 330 kts | 211° |
| 2026-05-04 08:40 | 51.93427 | 15.93720 | 15042 ft | 331 kts | 211° |
| 2026-05-04 08:41 | 51.91418 | 15.91906 | 15038 ft | 330 kts | 211° |
| 2026-05-04 08:41 | 51.89404 | 15.90090 | 15040 ft | 331 kts | 211° |
| 2026-05-04 08:41 | 51.87386 | 15.88280 | 15040 ft | 332 kts | 211° |
| 2026-05-04 08:41 | 51.85372 | 15.86475 | 15038 ft | 331 kts | 211° |
| 2026-05-04 08:42 | 51.83355 | 15.84665 | 15041 ft | 331 kts | 211° |
| 2026-05-04 08:42 | 51.81342 | 15.82861 | 15045 ft | 332 kts | 211° |
| 2026-05-04 08:42 | 51.79321 | 15.81053 | 15046 ft | 332 kts | 211° |
| 2026-05-04 08:42 | 51.77298 | 15.79246 | 15044 ft | 331 kts | 211° |
| 2026-05-04 08:43 | 51.75281 | 15.77444 | 15046 ft | 331 kts | 211° |
| 2026-05-04 08:43 | 51.73352 | 15.75442 | 15047 ft | 329 kts | 225° |
| 2026-05-04 08:43 | 51.72019 | 15.72453 | 15048 ft | 330 kts | 244° |
| 2026-05-04 08:43 | 51.71359 | 15.68904 | 15040 ft | 332 kts | 255° |
| 2026-05-04 08:44 | 51.70895 | 15.65299 | 15042 ft | 333 kts | 256° |
| 2026-05-04 08:44 | 51.70440 | 15.61631 | 15237 ft | 335 kts | 256° |
| 2026-05-04 08:46 | 51.66836 | 15.35061 | 19332 ft | 359 kts | 256° |
| 2026-05-04 08:46 | 51.66298 | 15.31116 | 19830 ft | 362 kts | 256° |
| 2026-05-04 08:46 | 51.65752 | 15.27130 | 20316 ft | 365 kts | 256° |
| 2026-05-04 08:46 | 51.65205 | 15.23144 | 20792 ft | 368 kts | 256° |
| 2026-05-04 08:47 | 51.64646 | 15.19090 | 21270 ft | 372 kts | 256° |
| 2026-05-04 08:47 | 51.64084 | 15.15015 | 21747 ft | 375 kts | 257° |
| 2026-05-04 08:47 | 51.63520 | 15.10943 | 22216 ft | 378 kts | 257° |
| 2026-05-04 08:47 | 51.62944 | 15.06794 | 22662 ft | 382 kts | 257° |
| 2026-05-04 08:48 | 51.62360 | 15.02599 | 23100 ft | 386 kts | 257° |
| 2026-05-04 08:48 | 51.61768 | 14.98360 | 23539 ft | 389 kts | 257° |
| 2026-05-04 08:48 | 51.61171 | 14.94097 | 23910 ft | 393 kts | 257° |
| 2026-05-04 08:48 | 51.60567 | 14.89794 | 24291 ft | 395 kts | 257° |
| 2026-05-04 08:49 | 51.59959 | 14.85477 | 24668 ft | 397 kts | 257° |
| 2026-05-04 08:50 | 51.52635 | 14.61672 | 26952 ft | 408 kts | 234° |
| 2026-05-04 08:50 | 51.50962 | 14.58052 | 27310 ft | 410 kts | 234° |
| 2026-05-04 08:51 | 51.49236 | 14.54321 | 27696 ft | 412 kts | 234° |
| 2026-05-04 08:51 | 51.47533 | 14.50693 | 27988 ft | 410 kts | 234° |
| 2026-05-04 08:51 | 51.45843 | 14.47114 | 27951 ft | 395 kts | 234° |
| 2026-05-04 08:51 | 51.44209 | 14.43632 | 27931 ft | 389 kts | 234° |
| 2026-05-04 08:52 | 51.42572 | 14.40133 | 28047 ft | 394 kts | 234° |
| 2026-05-04 08:52 | 51.40912 | 14.36603 | 28249 ft | 401 kts | 234° |
| 2026-05-04 08:52 | 51.39216 | 14.33013 | 28473 ft | 406 kts | 234° |
| 2026-05-04 08:52 | 51.37508 | 14.29398 | 28724 ft | 410 kts | 234° |
| 2026-05-04 08:53 | 51.35775 | 14.25729 | 28971 ft | 413 kts | 234° |
| 2026-05-04 08:54 | 51.23352 | 13.99597 | 30900 ft | 429 kts | 234° |
| 2026-05-04 08:55 | 51.21541 | 13.95812 | 31325 ft | 427 kts | 234° |
| 2026-05-04 08:55 | 51.19736 | 13.92043 | 31718 ft | 425 kts | 234° |
| 2026-05-04 08:55 | 51.17943 | 13.88304 | 32101 ft | 424 kts | 234° |
| 2026-05-04 08:55 | 51.16181 | 13.84633 | 32474 ft | 422 kts | 234° |
| 2026-05-04 08:57 | 51.03782 | 13.58961 | 34817 ft | 414 kts | 233° |
| 2026-05-04 09:01 | 50.79167 | 13.08735 | 36056 ft | 412 kts | 232° |
| 2026-05-04 09:01 | 50.75639 | 13.01614 | 36061 ft | 412 kts | 232° |
| 2026-05-04 09:02 | 50.72123 | 12.94538 | 36065 ft | 412 kts | 232° |
| 2026-05-04 09:02 | 50.68581 | 12.87428 | 36058 ft | 412 kts | 232° |
| 2026-05-04 09:03 | 50.65033 | 12.80326 | 36058 ft | 412 kts | 232° |
| 2026-05-04 09:03 | 50.61474 | 12.73223 | 36052 ft | 413 kts | 232° |
| 2026-05-04 09:04 | 50.57919 | 12.66145 | 36054 ft | 412 kts | 232° |
| 2026-05-04 09:04 | 50.54350 | 12.59060 | 36060 ft | 413 kts | 232° |
| 2026-05-04 09:05 | 50.50774 | 12.51979 | 36064 ft | 413 kts | 232° |
| 2026-05-04 09:05 | 50.47196 | 12.44913 | 36059 ft | 413 kts | 232° |
| 2026-05-04 09:06 | 50.43601 | 12.37834 | 36058 ft | 413 kts | 232° |
| 2026-05-04 09:08 | 50.29752 | 12.09155 | 36085 ft | 413 kts | 236° |
| 2026-05-04 09:08 | 50.26498 | 12.01755 | 36072 ft | 413 kts | 237° |
| 2026-05-04 09:09 | 50.23495 | 11.94119 | 36076 ft | 413 kts | 239° |
| 2026-05-04 09:09 | 50.20482 | 11.86472 | 36081 ft | 413 kts | 238° |
| 2026-05-04 09:10 | 50.17063 | 11.79291 | 36084 ft | 414 kts | 228° |
| 2026-05-04 09:10 | 50.13145 | 11.72796 | 36078 ft | 413 kts | 228° |
| 2026-05-04 09:11 | 50.09215 | 11.66252 | 36079 ft | 413 kts | 228° |
| 2026-05-04 09:11 | 50.05205 | 11.59804 | 36059 ft | 414 kts | 226° |
| 2026-05-04 09:12 | 50.01161 | 11.53423 | 36057 ft | 414 kts | 226° |
| 2026-05-04 09:14 | 49.83812 | 11.30291 | 36054 ft | 411 kts | 218° |
| 2026-05-04 09:14 | 49.79181 | 11.25059 | 36062 ft | 412 kts | 218° |
| 2026-05-04 09:15 | 49.74877 | 11.19268 | 36083 ft | 411 kts | 227° |
| 2026-05-04 09:15 | 49.70922 | 11.12904 | 36082 ft | 411 kts | 227° |
| 2026-05-04 09:17 | 49.53698 | 10.85495 | 36073 ft | 411 kts | 227° |
| 2026-05-04 09:18 | 49.49708 | 10.79187 | 36084 ft | 411 kts | 227° |
| 2026-05-04 09:18 | 49.45787 | 10.73006 | 36077 ft | 409 kts | 226° |
| 2026-05-04 09:19 | 49.41807 | 10.66746 | 36089 ft | 409 kts | 226° |
| 2026-05-04 09:19 | 49.37902 | 10.60459 | 36084 ft | 409 kts | 228° |
| 2026-05-04 09:20 | 49.33970 | 10.54131 | 36090 ft | 409 kts | 225° |
| 2026-05-04 09:20 | 49.29927 | 10.47965 | 36088 ft | 409 kts | 226° |
| 2026-05-04 09:21 | 49.25904 | 10.41796 | 36088 ft | 410 kts | 226° |
| 2026-05-04 09:21 | 49.21859 | 10.35622 | 36087 ft | 410 kts | 226° |
| 2026-05-04 09:22 | 49.17897 | 10.29419 | 36087 ft | 410 kts | 226° |
| 2026-05-04 09:22 | 49.13915 | 10.23165 | 36088 ft | 409 kts | 231° |
| 2026-05-04 09:23 | 49.10354 | 10.16362 | 36097 ft | 408 kts | 231° |
| 2026-05-04 09:23 | 49.06783 | 10.09630 | 36077 ft | 408 kts | 231° |
| 2026-05-04 09:25 | 48.92509 | 9.82748 | 36071 ft | 408 kts | 231° |
| 2026-05-04 09:26 | 48.88921 | 9.76034 | 36061 ft | 409 kts | 231° |
| 2026-05-04 09:26 | 48.85332 | 9.69339 | 36066 ft | 408 kts | 231° |
| 2026-05-04 09:27 | 48.81740 | 9.62655 | 36067 ft | 408 kts | 231° |
| 2026-05-04 09:27 | 48.78157 | 9.56006 | 36063 ft | 407 kts | 231° |
| 2026-05-04 09:28 | 48.74559 | 9.49345 | 36064 ft | 408 kts | 231° |
| 2026-05-04 09:28 | 48.70994 | 9.42759 | 36056 ft | 407 kts | 231° |
| 2026-05-04 09:29 | 48.67390 | 9.36116 | 36052 ft | 408 kts | 231° |
| 2026-05-04 09:29 | 48.63779 | 9.29479 | 36053 ft | 408 kts | 230° |
| 2026-05-04 09:30 | 48.60326 | 9.22702 | 36059 ft | 408 kts | 234° |
| 2026-05-04 09:30 | 48.57035 | 9.15709 | 36059 ft | 408 kts | 234° |
| 2026-05-04 09:31 | 48.53743 | 9.08745 | 36058 ft | 406 kts | 234° |
| 2026-05-04 09:31 | 48.50472 | 9.01830 | 36058 ft | 405 kts | 234° |
| 2026-05-04 09:32 | 48.47199 | 8.94937 | 36055 ft | 404 kts | 234° |
| 2026-05-04 09:34 | 48.34063 | 8.67437 | 36058 ft | 404 kts | 234° |
| 2026-05-04 09:34 | 48.30767 | 8.60581 | 36065 ft | 404 kts | 234° |
| 2026-05-04 09:35 | 48.27495 | 8.53792 | 36065 ft | 403 kts | 233° |
| 2026-05-04 09:35 | 48.24194 | 8.46959 | 36068 ft | 404 kts | 233° |
| 2026-05-04 09:37 | 48.10385 | 8.26752 | 36070 ft | 405 kts | 210° |
| 2026-05-04 09:37 | 48.07902 | 8.24756 | 36071 ft | 405 kts | 210° |
| 2026-05-04 09:38 | 48.02956 | 8.20709 | 36068 ft | 405 kts | 210° |
| 2026-05-04 09:38 | 47.97990 | 8.16711 | 36074 ft | 406 kts | 210° |
| 2026-05-04 09:39 | 47.93061 | 8.12726 | 36057 ft | 405 kts | 210° |
| 2026-05-04 09:39 | 47.88099 | 8.08734 | 36058 ft | 405 kts | 210° |
| 2026-05-04 09:40 | 47.83122 | 8.04734 | 36061 ft | 405 kts | 210° |
| 2026-05-04 09:40 | 47.78155 | 8.00753 | 36063 ft | 406 kts | 210° |
| 2026-05-04 09:42 | 47.58307 | 7.84929 | 36060 ft | 405 kts | 210° |
| 2026-05-04 09:43 | 47.53328 | 7.80981 | 36046 ft | 405 kts | 210° |
| 2026-05-04 09:43 | 47.48350 | 7.77043 | 36059 ft | 406 kts | 210° |
| 2026-05-04 09:44 | 47.43362 | 7.73104 | 36062 ft | 406 kts | 210° |
| 2026-05-04 09:46 | 47.24607 | 7.55268 | 36071 ft | 406 kts | 222° |
| 2026-05-04 09:46 | 47.20377 | 7.49751 | 36064 ft | 406 kts | 222° |
| 2026-05-04 09:47 | 47.16158 | 7.44228 | 36059 ft | 406 kts | 222° |
| 2026-05-04 09:49 | 46.99223 | 7.22230 | 36057 ft | 406 kts | 222° |
| 2026-05-04 09:51 | 46.84392 | 7.03119 | 36077 ft | 406 kts | 222° |
| 2026-05-04 09:51 | 46.80139 | 6.97666 | 36077 ft | 406 kts | 221° |
| 2026-05-04 09:52 | 46.75891 | 6.92231 | 36071 ft | 406 kts | 221° |
| 2026-05-04 09:52 | 46.71646 | 6.86812 | 36083 ft | 403 kts | 221° |
| 2026-05-04 09:53 | 46.67449 | 6.81466 | 36075 ft | 403 kts | 221° |
| 2026-05-04 09:53 | 46.63230 | 6.76103 | 36069 ft | 402 kts | 221° |
| 2026-05-04 09:54 | 46.59007 | 6.70747 | 36065 ft | 402 kts | 221° |
| 2026-05-04 09:54 | 46.54788 | 6.65407 | 36061 ft | 403 kts | 221° |
| 2026-05-04 09:55 | 46.50557 | 6.60063 | 36064 ft | 403 kts | 221° |
| 2026-05-04 09:55 | 46.46325 | 6.54730 | 36064 ft | 403 kts | 221° |
| 2026-05-04 09:56 | 46.42083 | 6.49395 | 36071 ft | 403 kts | 221° |
| 2026-05-04 09:56 | 46.37872 | 6.44111 | 36067 ft | 403 kts | 221° |
| 2026-05-04 09:57 | 46.33636 | 6.38808 | 36096 ft | 401 kts | 221° |
| 2026-05-04 09:57 | 46.29407 | 6.33523 | 36107 ft | 401 kts | 221° |
| 2026-05-04 09:58 | 46.25170 | 6.28239 | 36112 ft | 402 kts | 220° |
| 2026-05-04 09:58 | 46.20961 | 6.23002 | 36118 ft | 402 kts | 220° |
| 2026-05-04 10:00 | 46.04006 | 6.02017 | 36108 ft | 401 kts | 220° |
| 2026-05-04 10:04 | 45.74605 | 5.67486 | 36076 ft | 399 kts | 218° |
| 2026-05-04 10:04 | 45.70272 | 5.62522 | 36096 ft | 399 kts | 220° |
| 2026-05-04 10:04 | 45.68504 | 5.59483 | 36122 ft | 402 kts | 241° |
| 2026-05-04 10:05 | 45.67722 | 5.55627 | 36118 ft | 411 kts | 263° |
| 2026-05-04 10:05 | 45.67999 | 5.51536 | 36093 ft | 418 kts | 278° |
| 2026-05-04 10:05 | 45.68775 | 5.47521 | 36099 ft | 419 kts | 282° |
| 2026-05-04 10:06 | 45.70460 | 5.39551 | 36088 ft | 416 kts | 277° |
| 2026-05-04 10:06 | 45.71416 | 5.31450 | 36085 ft | 415 kts | 274° |
| 2026-05-04 10:08 | 45.73765 | 5.07170 | 36129 ft | 402 kts | 245° |
| 2026-05-04 10:08 | 45.72533 | 5.03566 | 36095 ft | 401 kts | 238° |
| 2026-05-04 10:08 | 45.69713 | 4.96671 | 36081 ft | 403 kts | 238° |
| 2026-05-04 10:09 | 45.67060 | 4.89657 | 36082 ft | 402 kts | 239° |
| 2026-05-04 10:09 | 45.64499 | 4.82544 | 36076 ft | 403 kts | 240° |
| 2026-05-04 10:10 | 45.61978 | 4.75392 | 36068 ft | 402 kts | 240° |
| 2026-05-04 10:10 | 45.59445 | 4.68266 | 36104 ft | 403 kts | 240° |
| 2026-05-04 10:11 | 45.56910 | 4.61137 | 36059 ft | 403 kts | 240° |
| 2026-05-04 10:11 | 45.54367 | 4.54011 | 36058 ft | 403 kts | 240° |
| 2026-05-04 10:12 | 45.51817 | 4.46882 | 36057 ft | 403 kts | 240° |
| 2026-05-04 10:12 | 45.49251 | 4.39783 | 36046 ft | 402 kts | 237° |
| 2026-05-04 10:13 | 45.45882 | 4.33505 | 36067 ft | 399 kts | 229° |
| 2026-05-04 10:13 | 45.42359 | 4.27376 | 36047 ft | 399 kts | 229° |
| 2026-05-04 10:14 | 45.38863 | 4.21288 | 36060 ft | 400 kts | 229° |
| 2026-05-04 10:16 | 45.24753 | 3.96881 | 36052 ft | 399 kts | 229° |
| 2026-05-04 10:16 | 45.21219 | 3.90800 | 36054 ft | 399 kts | 229° |
| 2026-05-04 10:17 | 45.17683 | 3.84729 | 36052 ft | 399 kts | 229° |
| 2026-05-04 10:19 | 45.03538 | 3.60574 | 36052 ft | 398 kts | 229° |
| 2026-05-04 10:19 | 44.99993 | 3.54553 | 36054 ft | 398 kts | 229° |
| 2026-05-04 10:20 | 44.96438 | 3.48528 | 36049 ft | 399 kts | 229° |
| 2026-05-04 10:20 | 44.92887 | 3.42521 | 36046 ft | 398 kts | 229° |
| 2026-05-04 10:21 | 44.89333 | 3.36522 | 36047 ft | 398 kts | 229° |
| 2026-05-04 10:21 | 44.85781 | 3.30540 | 36040 ft | 398 kts | 229° |
| 2026-05-04 10:22 | 44.80454 | 3.21592 | 36041 ft | 398 kts | 229° |
| 2026-05-04 10:23 | 44.76922 | 3.15673 | 36035 ft | 397 kts | 229° |
| 2026-05-04 10:25 | 44.62680 | 2.91938 | 36045 ft | 398 kts | 228° |
| 2026-05-04 10:25 | 44.59108 | 2.86015 | 36037 ft | 397 kts | 228° |
| 2026-05-04 10:26 | 44.55530 | 2.80096 | 36028 ft | 395 kts | 228° |
| 2026-05-04 10:26 | 44.51979 | 2.74233 | 36017 ft | 393 kts | 228° |
| 2026-05-04 10:27 | 44.48434 | 2.68391 | 36019 ft | 394 kts | 228° |
| 2026-05-04 10:27 | 44.44887 | 2.62559 | 36030 ft | 394 kts | 228° |
| 2026-05-04 10:28 | 44.41357 | 2.56767 | 36030 ft | 394 kts | 228° |
| 2026-05-04 10:28 | 44.37793 | 2.50931 | 36020 ft | 393 kts | 228° |
| 2026-05-04 10:29 | 44.34246 | 2.45133 | 36022 ft | 392 kts | 228° |
| 2026-05-04 10:29 | 44.30696 | 2.39343 | 36019 ft | 392 kts | 228° |
| 2026-05-04 10:30 | 44.27138 | 2.33553 | 36017 ft | 392 kts | 228° |
| 2026-05-04 10:30 | 44.23582 | 2.27777 | 36016 ft | 393 kts | 228° |
| 2026-05-04 10:31 | 44.20015 | 2.21995 | 36001 ft | 393 kts | 228° |
| 2026-05-04 10:32 | 44.07526 | 2.01841 | 36004 ft | 393 kts | 228° |
| 2026-05-04 10:33 | 44.03951 | 1.96098 | 35999 ft | 392 kts | 228° |
| 2026-05-04 10:33 | 44.00395 | 1.90397 | 36017 ft | 392 kts | 228° |
| 2026-05-04 10:34 | 43.96799 | 1.84645 | 36007 ft | 394 kts | 228° |
| 2026-05-04 10:34 | 43.93039 | 1.79086 | 36010 ft | 397 kts | 225° |
| 2026-05-04 10:35 | 43.89160 | 1.73617 | 35994 ft | 396 kts | 225° |
| 2026-05-04 10:35 | 43.85305 | 1.68201 | 35997 ft | 394 kts | 225° |
| 2026-05-04 10:36 | 43.81536 | 1.62917 | 35971 ft | 383 kts | 225° |
| 2026-05-04 10:36 | 43.77755 | 1.57622 | 36000 ft | 391 kts | 225° |
| 2026-05-04 10:37 | 43.73921 | 1.52266 | 36034 ft | 392 kts | 225° |
| 2026-05-04 10:37 | 43.70074 | 1.46900 | 36005 ft | 393 kts | 225° |
| 2026-05-04 10:39 | 43.56599 | 1.28192 | 35989 ft | 392 kts | 225° |
| 2026-05-04 10:40 | 43.52747 | 1.22867 | 35990 ft | 392 kts | 225° |
| 2026-05-04 10:40 | 43.48897 | 1.17555 | 35988 ft | 392 kts | 225° |
| 2026-05-04 10:41 | 43.45038 | 1.12239 | 35997 ft | 392 kts | 225° |
| 2026-05-04 10:41 | 43.41200 | 1.06964 | 35990 ft | 391 kts | 225° |
| 2026-05-04 10:42 | 43.37353 | 1.01687 | 35987 ft | 391 kts | 225° |
| 2026-05-04 10:42 | 43.33526 | 0.96447 | 35988 ft | 391 kts | 225° |
| 2026-05-04 10:43 | 43.29666 | 0.91171 | 35988 ft | 391 kts | 225° |
| 2026-05-04 10:45 | 43.14261 | 0.70215 | 35991 ft | 390 kts | 225° |
| 2026-05-04 10:45 | 43.10395 | 0.64982 | 35992 ft | 391 kts | 225° |
| 2026-05-04 10:46 | 43.06524 | 0.59751 | 35988 ft | 391 kts | 225° |
| 2026-05-04 10:46 | 43.02655 | 0.54532 | 35988 ft | 390 kts | 225° |
| 2026-05-04 10:47 | 42.98791 | 0.49330 | 35982 ft | 388 kts | 225° |
| 2026-05-04 10:47 | 42.94971 | 0.44197 | 35988 ft | 388 kts | 225° |
| 2026-05-04 10:49 | 42.80231 | 0.24477 | 36000 ft | 387 kts | 225° |
| 2026-05-04 10:50 | 42.76382 | 0.19350 | 36004 ft | 386 kts | 224° |
| 2026-05-04 10:52 | 42.60257 | -0.00071 | 36010 ft | 386 kts | 221° |
| 2026-05-04 10:52 | 42.56183 | -0.04838 | 36002 ft | 386 kts | 221° |
| 2026-05-04 10:54 | 42.39902 | -0.23791 | 35990 ft | 386 kts | 221° |
| 2026-05-04 10:56 | 42.23637 | -0.42593 | 36019 ft | 385 kts | 221° |
| 2026-05-04 10:57 | 42.19564 | -0.47279 | 35989 ft | 385 kts | 221° |
| 2026-05-04 10:57 | 42.15495 | -0.51955 | 36018 ft | 384 kts | 221° |
| 2026-05-04 10:58 | 42.11434 | -0.56612 | 36016 ft | 384 kts | 221° |
| 2026-05-04 10:58 | 42.07367 | -0.61267 | 36017 ft | 384 kts | 221° |
| 2026-05-04 10:59 | 42.03300 | -0.65916 | 36012 ft | 384 kts | 221° |
| 2026-05-04 10:59 | 41.99222 | -0.70568 | 36005 ft | 384 kts | 221° |
| 2026-05-04 11:00 | 41.95144 | -0.75212 | 35997 ft | 383 kts | 221° |
| 2026-05-04 11:02 | 41.78812 | -0.93732 | 35994 ft | 385 kts | 221° |
| 2026-05-04 11:05 | 41.48144 | -1.28164 | 35976 ft | 384 kts | 221° |
| 2026-05-04 11:06 | 41.44127 | -1.32640 | 35976 ft | 374 kts | 221° |
| 2026-05-04 11:06 | 41.40057 | -1.37172 | 35979 ft | 383 kts | 221° |
| 2026-05-04 11:10 | 41.11293 | -1.68962 | 35975 ft | 384 kts | 221° |
| 2026-05-04 11:12 | 40.95149 | -1.87316 | 36003 ft | 382 kts | 223° |
| 2026-05-04 11:12 | 40.91165 | -1.91994 | 36008 ft | 383 kts | 223° |
| 2026-05-04 11:13 | 40.87187 | -1.96651 | 35999 ft | 384 kts | 223° |
| 2026-05-04 11:13 | 40.83192 | -2.01322 | 36004 ft | 383 kts | 223° |
| 2026-05-04 11:14 | 40.79197 | -2.05986 | 36004 ft | 383 kts | 223° |
| 2026-05-04 11:16 | 40.63179 | -2.24582 | 36017 ft | 383 kts | 223° |
| 2026-05-04 11:16 | 40.59174 | -2.29209 | 36048 ft | 383 kts | 223° |
| 2026-05-04 11:17 | 40.55131 | -2.33871 | 36023 ft | 386 kts | 223° |
| 2026-05-04 11:19 | 40.39068 | -2.52320 | 36016 ft | 383 kts | 223° |
| 2026-05-04 11:19 | 40.35380 | -2.57329 | 36035 ft | 382 kts | 231° |
| 2026-05-04 11:20 | 40.31975 | -2.62692 | 36033 ft | 382 kts | 231° |
| 2026-05-04 11:20 | 40.28573 | -2.68040 | 36043 ft | 383 kts | 231° |
| 2026-05-04 11:22 | 40.14899 | -2.89457 | 36029 ft | 382 kts | 231° |
| 2026-05-04 11:23 | 40.11481 | -2.94787 | 36026 ft | 383 kts | 231° |
| 2026-05-04 11:25 | 39.99447 | -3.13479 | 36033 ft | 386 kts | 231° |
| 2026-05-04 11:25 | 39.95998 | -3.18816 | 36020 ft | 383 kts | 232° |
| 2026-05-04 11:27 | 39.80560 | -3.42591 | 36015 ft | 382 kts | 231° |
| 2026-05-04 11:28 | 39.77028 | -3.47790 | 36030 ft | 385 kts | 228° |
| 2026-05-04 11:28 | 39.73271 | -3.52732 | 36012 ft | 383 kts | 228° |
| 2026-05-04 11:29 | 39.69532 | -3.57664 | 36011 ft | 383 kts | 228° |
| 2026-05-04 11:29 | 39.65856 | -3.62487 | 36009 ft | 372 kts | 228° |
| 2026-05-04 11:31 | 39.52789 | -3.79609 | 36025 ft | 383 kts | 228° |
| 2026-05-04 11:33 | 39.39660 | -3.96714 | 36029 ft | 384 kts | 229° |
| 2026-05-04 11:33 | 39.35892 | -4.01605 | 36026 ft | 383 kts | 229° |
| 2026-05-04 11:34 | 39.32126 | -4.06486 | 36028 ft | 383 kts | 229° |
| 2026-05-04 11:34 | 39.28384 | -4.11328 | 36027 ft | 383 kts | 229° |
| 2026-05-04 11:35 | 39.25232 | -4.15401 | 36032 ft | 383 kts | 229° |
| 2026-05-04 11:35 | 39.20856 | -4.21046 | 36039 ft | 383 kts | 229° |
| 2026-05-04 11:36 | 39.17720 | -4.25085 | 36028 ft | 383 kts | 229° |
| 2026-05-04 11:36 | 39.13926 | -4.29963 | 36045 ft | 383 kts | 228° |
| 2026-05-04 11:37 | 39.10166 | -4.34792 | 36043 ft | 383 kts | 228° |
| 2026-05-04 11:37 | 39.06390 | -4.39631 | 36033 ft | 383 kts | 228° |
| 2026-05-04 11:38 | 39.02612 | -4.44467 | 36035 ft | 382 kts | 228° |
| 2026-05-04 11:38 | 38.98841 | -4.49285 | 36033 ft | 382 kts | 228° |
| 2026-05-04 11:39 | 38.95068 | -4.54099 | 36033 ft | 382 kts | 228° |
| 2026-05-04 11:41 | 38.81922 | -4.70804 | 36049 ft | 383 kts | 228° |
| 2026-05-04 11:41 | 38.78140 | -4.75592 | 36043 ft | 382 kts | 228° |
| 2026-05-04 11:42 | 38.74352 | -4.80381 | 36043 ft | 382 kts | 228° |
| 2026-05-04 11:42 | 38.70566 | -4.85160 | 36041 ft | 382 kts | 228° |
| 2026-05-04 11:43 | 38.66787 | -4.89921 | 36041 ft | 382 kts | 228° |
| 2026-05-04 11:43 | 38.62994 | -4.94694 | 36042 ft | 382 kts | 228° |
| 2026-05-04 11:44 | 38.59214 | -4.99443 | 36045 ft | 384 kts | 228° |
| 2026-05-04 11:44 | 38.55403 | -5.04222 | 36046 ft | 383 kts | 228° |
| 2026-05-04 11:45 | 38.51580 | -5.08946 | 36046 ft | 384 kts | 223° |
| 2026-05-04 11:45 | 38.46909 | -5.12408 | 36054 ft | 390 kts | 212° |
| 2026-05-04 11:46 | 38.42024 | -5.15437 | 36059 ft | 390 kts | 212° |
| 2026-05-04 11:46 | 38.37170 | -5.18459 | 36060 ft | 390 kts | 212° |
| 2026-05-04 11:47 | 38.32300 | -5.21475 | 36060 ft | 390 kts | 212° |
| 2026-05-04 11:47 | 38.27415 | -5.24503 | 36060 ft | 389 kts | 212° |
| 2026-05-04 11:48 | 38.22543 | -5.27515 | 36060 ft | 389 kts | 212° |
| 2026-05-04 11:48 | 38.17658 | -5.30531 | 36060 ft | 389 kts | 212° |
| 2026-05-04 11:49 | 38.12808 | -5.33521 | 36075 ft | 389 kts | 212° |
| 2026-05-04 11:49 | 38.07897 | -5.36546 | 36059 ft | 392 kts | 212° |
| 2026-05-04 11:50 | 38.02999 | -5.39554 | 36047 ft | 389 kts | 212° |
| 2026-05-04 11:50 | 37.98135 | -5.42542 | 36049 ft | 388 kts | 212° |
| 2026-05-04 11:51 | 37.93276 | -5.45518 | 36047 ft | 387 kts | 212° |
| 2026-05-04 11:51 | 37.88424 | -5.48488 | 36050 ft | 387 kts | 212° |
| 2026-05-04 11:52 | 37.83594 | -5.51440 | 36050 ft | 388 kts | 212° |
| 2026-05-04 11:52 | 37.78735 | -5.54404 | 36053 ft | 386 kts | 212° |
| 2026-05-04 11:53 | 37.73889 | -5.57358 | 36048 ft | 386 kts | 212° |
| 2026-05-04 11:53 | 37.69044 | -5.60305 | 36062 ft | 387 kts | 212° |
| 2026-05-04 11:55 | 37.49688 | -5.72039 | 36069 ft | 386 kts | 212° |
| 2026-05-04 11:56 | 37.44833 | -5.74971 | 36070 ft | 387 kts | 212° |
| 2026-05-04 11:56 | 37.40432 | -5.78692 | 36087 ft | 379 kts | 225° |
| 2026-05-04 11:57 | 37.36416 | -5.82994 | 36092 ft | 380 kts | 225° |
| 2026-05-04 11:57 | 37.32375 | -5.87282 | 36071 ft | 380 kts | 225° |
| 2026-05-04 11:58 | 37.28375 | -5.91540 | 36077 ft | 379 kts | 225° |
| 2026-05-04 11:58 | 37.24344 | -5.95814 | 36068 ft | 379 kts | 225° |
| 2026-05-04 11:59 | 37.20311 | -6.00089 | 36067 ft | 379 kts | 225° |
| 2026-05-04 11:59 | 37.16276 | -6.04357 | 36077 ft | 379 kts | 225° |
| 2026-05-04 12:00 | 37.12245 | -6.08616 | 36078 ft | 379 kts | 225° |
| 2026-05-04 12:00 | 37.08202 | -6.12883 | 36084 ft | 380 kts | 225° |
| 2026-05-04 12:01 | 37.04176 | -6.17122 | 36098 ft | 376 kts | 225° |
| 2026-05-04 12:02 | 36.90178 | -6.31823 | 36118 ft | 375 kts | 225° |
| 2026-05-04 12:03 | 36.86173 | -6.36015 | 36126 ft | 375 kts | 225° |
| 2026-05-04 12:03 | 36.82173 | -6.40196 | 36131 ft | 375 kts | 225° |
| 2026-05-04 12:04 | 36.78172 | -6.44372 | 36130 ft | 373 kts | 225° |
| 2026-05-04 12:04 | 36.74195 | -6.48519 | 36138 ft | 374 kts | 225° |
| 2026-05-04 12:05 | 36.70216 | -6.52659 | 36138 ft | 374 kts | 225° |
| 2026-05-04 12:05 | 36.66224 | -6.56810 | 36135 ft | 374 kts | 225° |
| 2026-05-04 12:06 | 36.62221 | -6.60965 | 36135 ft | 374 kts | 225° |
| 2026-05-04 12:06 | 36.58213 | -6.65119 | 36135 ft | 374 kts | 225° |
| 2026-05-04 12:07 | 36.54216 | -6.69256 | 36130 ft | 373 kts | 225° |
| 2026-05-04 12:07 | 36.50252 | -6.73354 | 36131 ft | 373 kts | 225° |
| 2026-05-04 12:08 | 36.46258 | -6.77475 | 36131 ft | 373 kts | 225° |
| 2026-05-04 12:08 | 36.42261 | -6.81594 | 36132 ft | 373 kts | 225° |
| 2026-05-04 12:09 | 36.38270 | -6.85701 | 36136 ft | 373 kts | 225° |
| 2026-05-04 12:09 | 36.34261 | -6.89820 | 36139 ft | 374 kts | 225° |
| 2026-05-04 12:10 | 36.30255 | -6.93931 | 36134 ft | 374 kts | 225° |
| 2026-05-04 12:10 | 36.26251 | -6.98035 | 36138 ft | 373 kts | 226° |
| 2026-05-04 12:11 | 36.22268 | -7.02110 | 36140 ft | 373 kts | 226° |
| 2026-05-04 12:11 | 36.18257 | -7.06209 | 36140 ft | 373 kts | 226° |
| 2026-05-04 12:12 | 36.14245 | -7.10304 | 36137 ft | 373 kts | 226° |
| 2026-05-04 12:12 | 36.10236 | -7.14391 | 36139 ft | 373 kts | 226° |
| 2026-05-04 12:14 | 35.94167 | -7.30711 | 36140 ft | 375 kts | 226° |
| 2026-05-04 12:15 | 35.90161 | -7.34767 | 36141 ft | 374 kts | 226° |
| 2026-05-04 12:15 | 35.86131 | -7.38841 | 36139 ft | 374 kts | 226° |
| 2026-05-04 12:16 | 35.82103 | -7.42904 | 36141 ft | 374 kts | 225° |
| 2026-05-04 12:16 | 35.78047 | -7.46946 | 36145 ft | 374 kts | 225° |
| 2026-05-04 12:17 | 35.73998 | -7.50990 | 36143 ft | 374 kts | 225° |
| 2026-05-04 12:17 | 35.69947 | -7.55026 | 36143 ft | 375 kts | 225° |
| 2026-05-04 12:18 | 35.65891 | -7.59062 | 36145 ft | 374 kts | 225° |
| 2026-05-04 12:18 | 35.61838 | -7.63091 | 36151 ft | 375 kts | 225° |
| 2026-05-04 12:19 | 35.57777 | -7.67121 | 36152 ft | 375 kts | 225° |
| 2026-05-04 12:19 | 35.53738 | -7.71125 | 36150 ft | 375 kts | 225° |
| 2026-05-04 12:20 | 35.49682 | -7.75140 | 36143 ft | 374 kts | 225° |
| 2026-05-04 12:20 | 35.45617 | -7.79158 | 36154 ft | 375 kts | 225° |
| 2026-05-04 12:21 | 35.41561 | -7.83162 | 36149 ft | 375 kts | 225° |
| 2026-05-04 12:21 | 35.38198 | -7.86517 | 36145 ft | 374 kts | 226° |
| 2026-05-04 12:22 | 35.34161 | -7.90569 | 36156 ft | 375 kts | 225° |
| 2026-05-04 12:22 | 35.30141 | -7.94574 | 36152 ft | 374 kts | 226° |
| 2026-05-04 12:23 | 35.26113 | -7.98596 | 36152 ft | 374 kts | 226° |
| 2026-05-04 12:23 | 35.22071 | -8.02619 | 36150 ft | 374 kts | 225° |
| 2026-05-04 12:24 | 35.18030 | -8.06639 | 36151 ft | 374 kts | 225° |
| 2026-05-04 12:24 | 35.13992 | -8.10650 | 36151 ft | 374 kts | 225° |
| 2026-05-04 12:25 | 35.09947 | -8.14662 | 36151 ft | 374 kts | 225° |
| 2026-05-04 12:25 | 35.05906 | -8.18666 | 36151 ft | 374 kts | 225° |
| 2026-05-04 12:26 | 35.01859 | -8.22670 | 36156 ft | 374 kts | 225° |
| 2026-05-04 12:26 | 34.97810 | -8.26670 | 36156 ft | 374 kts | 225° |
| 2026-05-04 12:27 | 34.93791 | -8.30636 | 36159 ft | 374 kts | 225° |
| 2026-05-04 12:27 | 34.89740 | -8.34629 | 36151 ft | 374 kts | 225° |
| 2026-05-04 12:28 | 34.85688 | -8.38617 | 36152 ft | 374 kts | 225° |
| 2026-05-04 12:28 | 34.81629 | -8.42606 | 36155 ft | 375 kts | 225° |
| 2026-05-04 12:29 | 34.77576 | -8.46584 | 36154 ft | 374 kts | 225° |
| 2026-05-04 12:29 | 34.73546 | -8.50536 | 36152 ft | 374 kts | 225° |
| 2026-05-04 12:30 | 34.69490 | -8.54507 | 36156 ft | 374 kts | 225° |
| 2026-05-04 12:30 | 34.65431 | -8.58477 | 36155 ft | 374 kts | 225° |
| 2026-05-04 12:31 | 34.61371 | -8.62440 | 36151 ft | 374 kts | 225° |
| 2026-05-04 12:31 | 34.57335 | -8.66377 | 36152 ft | 374 kts | 225° |
| 2026-05-04 12:32 | 34.51248 | -8.72304 | 36148 ft | 374 kts | 225° |
| 2026-05-04 12:33 | 34.47176 | -8.76263 | 36155 ft | 375 kts | 225° |
| 2026-05-04 12:33 | 34.43100 | -8.80217 | 36157 ft | 375 kts | 225° |
| 2026-05-04 12:34 | 34.39006 | -8.84150 | 36159 ft | 377 kts | 224° |
| 2026-05-04 12:34 | 34.34935 | -8.88064 | 36157 ft | 375 kts | 224° |
| 2026-05-04 12:35 | 34.30896 | -8.91942 | 36154 ft | 373 kts | 224° |
| 2026-05-04 12:35 | 34.26956 | -8.95722 | 36158 ft | 375 kts | 224° |
| 2026-05-04 12:36 | 34.22882 | -8.99622 | 36156 ft | 373 kts | 224° |
| 2026-05-04 12:36 | 34.18815 | -9.03512 | 36157 ft | 373 kts | 224° |
| 2026-05-04 12:37 | 34.14745 | -9.07401 | 36158 ft | 373 kts | 224° |
| 2026-05-04 12:37 | 34.10670 | -9.11289 | 36155 ft | 376 kts | 224° |
| 2026-05-04 12:38 | 34.06578 | -9.15186 | 36153 ft | 375 kts | 224° |
| 2026-05-04 12:38 | 34.04646 | -9.17026 | 36153 ft | 374 kts | 224° |
| 2026-05-04 12:39 | 34.02268 | -9.19288 | 36152 ft | 375 kts | 224° |
| 2026-05-04 12:40 | 33.98177 | -9.23177 | 36153 ft | 375 kts | 224° |
| 2026-05-04 12:40 | 33.94078 | -9.27067 | 36151 ft | 375 kts | 224° |
| 2026-05-04 12:41 | 33.89980 | -9.30952 | 36154 ft | 375 kts | 224° |
| 2026-05-04 12:41 | 33.85875 | -9.34839 | 36121 ft | 375 kts | 224° |
| 2026-05-04 12:42 | 33.81778 | -9.38713 | 36151 ft | 374 kts | 223° |
| 2026-05-04 12:42 | 33.77699 | -9.42565 | 36151 ft | 375 kts | 223° |
| 2026-05-04 12:43 | 33.73596 | -9.46435 | 36143 ft | 375 kts | 223° |
| 2026-05-04 12:43 | 33.69483 | -9.50310 | 36143 ft | 376 kts | 223° |
| 2026-05-04 12:44 | 33.65365 | -9.54184 | 36147 ft | 376 kts | 223° |
| 2026-05-04 12:44 | 33.61248 | -9.58053 | 36145 ft | 376 kts | 223° |
| 2026-05-04 12:45 | 33.57127 | -9.61920 | 36140 ft | 375 kts | 223° |
| 2026-05-04 12:45 | 33.53028 | -9.65763 | 36154 ft | 376 kts | 223° |
| 2026-05-04 12:46 | 33.48902 | -9.69626 | 36149 ft | 376 kts | 223° |
| 2026-05-04 12:46 | 33.44774 | -9.73486 | 36157 ft | 376 kts | 223° |
| 2026-05-04 12:47 | 33.40643 | -9.77344 | 36144 ft | 376 kts | 223° |
| 2026-05-04 12:47 | 33.36511 | -9.81198 | 36142 ft | 376 kts | 223° |
| 2026-05-04 12:48 | 33.32385 | -9.85041 | 36145 ft | 377 kts | 223° |
| 2026-05-04 12:48 | 33.28234 | -9.88903 | 36129 ft | 377 kts | 223° |
| 2026-05-04 12:49 | 33.24089 | -9.92755 | 36138 ft | 377 kts | 223° |
| 2026-05-04 12:49 | 33.19936 | -9.96609 | 36138 ft | 377 kts | 223° |
| 2026-05-04 12:50 | 33.15814 | -10.00430 | 36143 ft | 377 kts | 223° |
| 2026-05-04 12:50 | 33.11672 | -10.04266 | 36143 ft | 377 kts | 223° |
| 2026-05-04 12:51 | 33.07515 | -10.08110 | 36141 ft | 378 kts | 223° |
| 2026-05-04 12:51 | 33.03360 | -10.11947 | 36139 ft | 377 kts | 223° |
| 2026-05-04 12:52 | 32.99212 | -10.15772 | 36143 ft | 377 kts | 223° |
| 2026-05-04 12:52 | 32.95045 | -10.19603 | 36143 ft | 377 kts | 223° |
| 2026-05-04 12:53 | 32.90889 | -10.23424 | 36146 ft | 378 kts | 222° |
| 2026-05-04 12:53 | 32.86729 | -10.27241 | 36142 ft | 378 kts | 222° |
| 2026-05-04 12:54 | 32.82559 | -10.31064 | 36144 ft | 378 kts | 222° |
| 2026-05-04 12:54 | 32.78421 | -10.34853 | 36142 ft | 378 kts | 222° |
| 2026-05-04 12:55 | 32.74250 | -10.38666 | 36145 ft | 378 kts | 222° |
| 2026-05-04 12:55 | 32.70078 | -10.42477 | 36140 ft | 379 kts | 222° |
| 2026-05-04 12:56 | 32.65893 | -10.46294 | 36139 ft | 379 kts | 222° |
| 2026-05-04 12:56 | 32.61712 | -10.50104 | 36139 ft | 379 kts | 222° |
| 2026-05-04 12:57 | 32.57532 | -10.53908 | 36118 ft | 379 kts | 222° |
| 2026-05-04 12:57 | 32.53377 | -10.57684 | 36119 ft | 379 kts | 222° |
| 2026-05-04 12:58 | 32.49186 | -10.61489 | 36116 ft | 379 kts | 222° |
| 2026-05-04 12:58 | 32.44999 | -10.65286 | 36116 ft | 379 kts | 222° |
| 2026-05-04 12:59 | 32.40809 | -10.69081 | 36108 ft | 379 kts | 222° |
| 2026-05-04 12:59 | 32.36620 | -10.72870 | 36107 ft | 379 kts | 222° |
| 2026-05-04 13:00 | 32.32428 | -10.76658 | 36107 ft | 379 kts | 222° |
| 2026-05-04 13:00 | 32.28240 | -10.80437 | 36107 ft | 379 kts | 222° |
| 2026-05-04 13:01 | 32.24074 | -10.84192 | 36105 ft | 379 kts | 222° |
| 2026-05-04 13:01 | 32.19880 | -10.87968 | 36105 ft | 379 kts | 222° |
| 2026-05-04 13:02 | 32.15689 | -10.91737 | 36102 ft | 379 kts | 222° |
| 2026-05-04 13:02 | 32.11496 | -10.95502 | 36099 ft | 378 kts | 223° |
| 2026-05-04 13:03 | 32.07309 | -10.99258 | 36113 ft | 378 kts | 223° |
| 2026-05-04 13:03 | 32.03147 | -11.02988 | 36109 ft | 378 kts | 223° |
| 2026-05-04 13:04 | 31.98964 | -11.06731 | 36110 ft | 378 kts | 223° |
| 2026-05-04 13:04 | 31.94782 | -11.10470 | 36111 ft | 377 kts | 223° |
| 2026-05-04 13:05 | 31.90593 | -11.14210 | 36106 ft | 377 kts | 223° |
| 2026-05-04 13:05 | 31.86409 | -11.17941 | 36112 ft | 377 kts | 223° |
| 2026-05-04 13:06 | 31.82226 | -11.21667 | 36107 ft | 376 kts | 223° |
| 2026-05-04 13:06 | 31.78048 | -11.25385 | 36098 ft | 376 kts | 223° |
| 2026-05-04 13:07 | 31.73869 | -11.29101 | 36099 ft | 376 kts | 223° |
| 2026-05-04 13:07 | 31.69737 | -11.32794 | 36100 ft | 376 kts | 223° |
| 2026-05-04 13:08 | 31.65574 | -11.36502 | 36094 ft | 375 kts | 223° |
| 2026-05-04 13:08 | 31.61409 | -11.40210 | 35972 ft | 375 kts | 223° |
| 2026-05-04 13:08 | 31.59336 | -11.42052 | 35701 ft | 371 kts | 223° |
| 2026-05-04 13:09 | 31.57297 | -11.43862 | 35598 ft | 364 kts | 223° |
| 2026-05-04 13:09 | 31.55292 | -11.45642 | 35397 ft | 359 kts | 223° |
| 2026-05-04 13:09 | 31.53979 | -11.46810 | 35266 ft | 356 kts | 224° |
| 2026-05-04 13:09 | 31.52013 | -11.48557 | 35032 ft | 353 kts | 223° |
| 2026-05-04 13:10 | 31.50053 | -11.50297 | 34757 ft | 352 kts | 223° |
| 2026-05-04 13:10 | 31.48102 | -11.52025 | 34484 ft | 351 kts | 223° |
| 2026-05-04 13:10 | 31.46155 | -11.53751 | 34195 ft | 351 kts | 223° |
| 2026-05-04 13:10 | 31.44210 | -11.55474 | 33856 ft | 351 kts | 223° |
| 2026-05-04 13:11 | 31.42254 | -11.57206 | 33497 ft | 352 kts | 223° |
| 2026-05-04 13:11 | 31.40302 | -11.58933 | 33142 ft | 352 kts | 223° |
| 2026-05-04 13:11 | 31.38347 | -11.60662 | 32779 ft | 353 kts | 223° |
| 2026-05-04 13:11 | 31.36382 | -11.62398 | 32421 ft | 354 kts | 222° |
| 2026-05-04 13:12 | 31.34409 | -11.64141 | 32054 ft | 356 kts | 222° |
| 2026-05-04 13:12 | 31.32423 | -11.65895 | 31619 ft | 360 kts | 222° |
| 2026-05-04 13:12 | 31.30412 | -11.67670 | 31260 ft | 363 kts | 221° |
| 2026-05-04 13:12 | 31.28396 | -11.69446 | 30941 ft | 363 kts | 221° |
| 2026-05-04 13:13 | 31.26379 | -11.71222 | 30610 ft | 363 kts | 221° |
| 2026-05-04 13:13 | 31.24384 | -11.72981 | 30273 ft | 363 kts | 221° |
| 2026-05-04 13:13 | 31.22361 | -11.74762 | 29939 ft | 363 kts | 221° |
| 2026-05-04 13:13 | 31.20344 | -11.76537 | 29565 ft | 364 kts | 221° |
| 2026-05-04 13:14 | 31.18318 | -11.78318 | 29190 ft | 364 kts | 221° |
| 2026-05-04 13:14 | 31.16289 | -11.80101 | 28821 ft | 365 kts | 221° |
| 2026-05-04 13:14 | 31.14257 | -11.81887 | 28461 ft | 365 kts | 221° |
| 2026-05-04 13:14 | 31.12225 | -11.83671 | 28092 ft | 366 kts | 221° |
| 2026-05-04 13:15 | 31.10188 | -11.85458 | 27733 ft | 367 kts | 221° |
| 2026-05-04 13:15 | 31.08150 | -11.87246 | 27376 ft | 367 kts | 221° |
| 2026-05-04 13:15 | 31.06106 | -11.89037 | 27022 ft | 368 kts | 221° |
| 2026-05-04 13:15 | 31.04058 | -11.90832 | 26671 ft | 369 kts | 221° |
| 2026-05-04 13:16 | 31.02004 | -11.92630 | 26320 ft | 369 kts | 221° |
| 2026-05-04 13:16 | 30.99951 | -11.94426 | 25974 ft | 370 kts | 221° |
| 2026-05-04 13:16 | 30.97884 | -11.96235 | 25634 ft | 371 kts | 221° |
| 2026-05-04 13:16 | 30.95817 | -11.98041 | 25280 ft | 372 kts | 221° |
| 2026-05-04 13:17 | 30.93773 | -11.99827 | 24955 ft | 372 kts | 221° |
| 2026-05-04 13:17 | 30.91697 | -12.01639 | 24615 ft | 373 kts | 221° |
| 2026-05-04 13:17 | 30.89619 | -12.03453 | 24295 ft | 374 kts | 220° |
| 2026-05-04 13:17 | 30.87535 | -12.05271 | 23966 ft | 375 kts | 220° |
| 2026-05-04 13:18 | 30.85451 | -12.07088 | 23627 ft | 376 kts | 220° |